Terminal Aerodrome Forecast
Issued by NWS Sterling, VA

Current Version | Previous Version | Text Only | Print | Product List | Glossary Off
Versions: 1 2 3 4 5 6 7 8 9 10 11 12 13 14 15 16

720
FTUS41 KLWX 161737
TAFMRB
TAF
KMRB 161737Z 1618/1718 VRB03KT P6SM BKN020
     FM170100 VRB03KT 5SM BR OVC015
     FM170600 00000KT 2SM BR OVC015
     FM171200 VRB03KT 2SM -SHRA BR OVC008=

USA.gov is the U.S. government's official web portal to all federal, state and local government web resources and services.